sensor_id;sensor_type;location;lat;lon;timestamp;pressure;altitude;pressure_sealevel;temperature
40624;BMP280;26325;48.594;11.650;2023-05-24T00:00:05;96773.03;;;15.51
40624;BMP280;26325;48.594;11.650;2023-05-24T00:02:39;96762.66;;;15.41
40624;BMP280;26325;48.594;11.650;2023-05-24T00:05:08;96759.25;;;15.50
40624;BMP280;26325;48.594;11.650;2023-05-24T00:07:36;96754.31;;;15.54
40624;BMP280;26325;48.594;11.650;2023-05-24T00:10:06;96742.84;;;15.50
40624;BMP280;26325;48.594;11.650;2023-05-24T00:12:34;96749.91;;;15.44
40624;BMP280;26325;48.594;11.650;2023-05-24T00:15:00;96745.22;;;15.46
40624;BMP280;26325;48.594;11.650;2023-05-24T00:17:25;96747.03;;;15.46
40624;BMP280;26325;48.594;11.650;2023-05-24T00:19:51;96750.44;;;15.42
40624;BMP280;26325;48.594;11.650;2023-05-24T00:22:19;96753.56;;;15.43
40624;BMP280;26325;48.594;11.650;2023-05-24T00:24:48;96754.59;;;15.47
40624;BMP280;26325;48.594;11.650;2023-05-24T00:27:16;96753.03;;;15.42
40624;BMP280;26325;48.594;11.650;2023-05-24T00:29:42;96748.09;;;15.40
40624;BMP280;26325;48.594;11.650;2023-05-24T00:32:07;96746.78;;;15.43
40624;BMP280;26325;48.594;11.650;2023-05-24T00:34:33;96743.13;;;15.43
40624;BMP280;26325;48.594;11.650;2023-05-24T00:36:58;96743.94;;;15.39
40624;BMP280;26325;48.594;11.650;2023-05-24T00:39:25;96737.19;;;15.38
40624;BMP280;26325;48.594;11.650;2023-05-24T00:41:51;96736.13;;;15.39
40624;BMP280;26325;48.594;11.650;2023-05-24T00:44:16;96729.91;;;15.35
40624;BMP280;26325;48.594;11.650;2023-05-24T00:46:42;96729.91;;;15.35
40624;BMP280;26325;48.594;11.650;2023-05-24T00:49:08;96731.47;;;15.36
40624;BMP280;26325;48.594;11.650;2023-05-24T00:51:34;96728.34;;;15.39
40624;BMP280;26325;48.594;11.650;2023-05-24T00:54:03;96731.00;;;15.20
40624;BMP280;26325;48.594;11.650;2023-05-24T00:56:31;96723.94;;;15.25
40624;BMP280;26325;48.594;11.650;2023-05-24T00:58:56;96725.78;;;15.20
40624;BMP280;26325;48.594;11.650;2023-05-24T01:01:22;96729.16;;;15.30
40624;BMP280;26325;48.594;11.650;2023-05-24T01:03:55;96730.97;;;15.29
40624;BMP280;26325;48.594;11.650;2023-05-24T01:06:21;96730.41;;;15.32
40624;BMP280;26325;48.594;11.650;2023-05-24T01:09:08;96728.09;;;15.31
40624;BMP280;26325;48.594;11.650;2023-05-24T01:14:43;96746.06;;;15.27
40624;BMP280;26325;48.594;11.650;2023-05-24T01:17:26;96741.13;;;15.31
40624;BMP280;26325;48.594;11.650;2023-05-24T01:23:17;96746.09;;;15.08
40624;BMP280;26325;48.594;11.650;2023-05-24T01:26:17;96749.75;;;15.02
40624;BMP280;26325;48.594;11.650;2023-05-24T01:28:46;96752.34;;;14.97
40624;BMP280;26325;48.594;11.650;2023-05-24T01:31:14;96753.38;;;15.06
40624;BMP280;26325;48.594;11.650;2023-05-24T01:33:42;96745.84;;;15.00
40624;BMP280;26325;48.594;11.650;2023-05-24T01:36:08;96765.63;;;14.96
40624;BMP280;26325;48.594;11.650;2023-05-24T01:38:33;96765.34;;;14.87
40624;BMP280;26325;48.594;11.650;2023-05-24T01:44:16;96772.09;;;14.88
40624;BMP280;26325;48.594;11.650;2023-05-24T01:46:55;96759.63;;;14.86
40624;BMP280;26325;48.594;11.650;2023-05-24T01:49:30;96765.84;;;14.89
40624;BMP280;26325;48.594;11.650;2023-05-24T01:52:11;96763.25;;;14.85
40624;BMP280;26325;48.594;11.650;2023-05-24T01:54:46;96762.22;;;14.90
40624;BMP280;26325;48.594;11.650;2023-05-24T01:57:13;96761.72;;;14.79
40624;BMP280;26325;48.594;11.650;2023-05-24T01:59:41;96765.09;;;14.69
40624;BMP280;26325;48.594;11.650;2023-05-24T02:02:09;96767.16;;;14.72
40624;BMP280;26325;48.594;11.650;2023-05-24T02:04:36;96763.03;;;14.62
40624;BMP280;26325;48.594;11.650;2023-05-24T02:07:01;96767.69;;;14.65
40624;BMP280;26325;48.594;11.650;2023-05-24T02:09:27;96765.06;;;14.55
40624;BMP280;26325;48.594;11.650;2023-05-24T02:11:53;96763.00;;;14.42
40624;BMP280;26325;48.594;11.650;2023-05-24T02:14:18;96767.16;;;14.38
40624;BMP280;26325;48.594;11.650;2023-05-24T02:16:45;96760.41;;;14.32
40624;BMP280;26325;48.594;11.650;2023-05-24T02:19:12;96760.41;;;14.32
40624;BMP280;26325;48.594;11.650;2023-05-24T02:21:38;96763.00;;;14.28
40624;BMP280;26325;48.594;11.650;2023-05-24T02:24:04;96764.28;;;14.25
40624;BMP280;26325;48.594;11.650;2023-05-24T02:26:31;96770.53;;;14.19
40624;BMP280;26325;48.594;11.650;2023-05-24T02:28:56;96774.13;;;14.09
40624;BMP280;26325;48.594;11.650;2023-05-24T02:31:24;96765.28;;;14.05
40624;BMP280;26325;48.594;11.650;2023-05-24T02:33:54;96761.91;;;13.99
40624;BMP280;26325;48.594;11.650;2023-05-24T02:36:22;96769.94;;;13.93
40624;BMP280;26325;48.594;11.650;2023-05-24T02:38:51;96771.97;;;13.86
40624;BMP280;26325;48.594;11.650;2023-05-24T02:41:19;96765.50;;;13.84
40624;BMP280;26325;48.594;11.650;2023-05-24T02:43:46;96763.63;;;13.79
40624;BMP280;26325;48.594;11.650;2023-05-24T02:46:13;96768.28;;;13.77
40624;BMP280;26325;48.594;11.650;2023-05-24T02:48:39;96779.69;;;13.71
40624;BMP280;26325;48.594;11.650;2023-05-24T02:51:04;96771.31;;;13.60
40624;BMP280;26325;48.594;11.650;2023-05-24T02:53:31;96769.50;;;13.55
40624;BMP280;26325;48.594;11.650;2023-05-24T02:55:58;96757.25;;;13.51
40624;BMP280;26325;48.594;11.650;2023-05-24T02:58:24;96761.66;;;13.41
40624;BMP280;26325;48.594;11.650;2023-05-24T03:00:54;96760.59;;;13.37
40624;BMP280;26325;48.594;11.650;2023-05-24T03:03:19;96768.88;;;13.34
40624;BMP280;26325;48.594;11.650;2023-05-24T03:05:45;96774.81;;;13.30
40624;BMP280;26325;48.594;11.650;2023-05-24T03:08:10;96771.16;;;13.26
40624;BMP280;26325;48.594;11.650;2023-05-24T03:10:45;96777.88;;;13.22
40624;BMP280;26325;48.594;11.650;2023-05-24T03:13:13;96778.91;;;13.16
40624;BMP280;26325;48.594;11.650;2023-05-24T03:15:41;96776.31;;;13.16
40624;BMP280;26325;48.594;11.650;2023-05-24T03:18:07;96773.44;;;13.13
40624;BMP280;26325;48.594;11.650;2023-05-24T03:20:32;96778.84;;;13.06
40624;BMP280;26325;48.594;11.650;2023-05-24T03:23:01;96781.38;;;13.01
40624;BMP280;26325;48.594;11.650;2023-05-24T03:25:27;96786.31;;;12.98
40624;BMP280;26325;48.594;11.650;2023-05-24T03:27:52;96790.41;;;12.94
40624;BMP280;26325;48.594;11.650;2023-05-24T03:30:18;96785.75;;;12.96
40624;BMP280;26325;48.594;11.650;2023-05-24T03:32:43;96793.28;;;12.97
40624;BMP280;26325;48.594;11.650;2023-05-24T03:35:14;96787.56;;;12.95
40624;BMP280;26325;48.594;11.650;2023-05-24T03:37:42;96772.56;;;13.02
40624;BMP280;26325;48.594;11.650;2023-05-24T03:40:07;96780.09;;;13.04
40624;BMP280;26325;48.594;11.650;2023-05-24T03:42:33;96775.78;;;13.14
40624;BMP280;26325;48.594;11.650;2023-05-24T03:44:58;96781.50;;;13.21
40624;BMP280;26325;48.594;11.650;2023-05-24T03:47:24;96787.47;;;13.21
40624;BMP280;26325;48.594;11.650;2023-05-24T03:49:49;96783.56;;;13.19
40624;BMP280;26325;48.594;11.650;2023-05-24T03:52:18;96779.72;;;13.26
40624;BMP280;26325;48.594;11.650;2023-05-24T03:54:47;96781.56;;;13.31
40624;BMP280;26325;48.594;11.650;2023-05-24T03:57:13;96784.69;;;13.33
40624;BMP280;26325;48.594;11.650;2023-05-24T03:59:45;96781.63;;;13.40
40624;BMP280;26325;48.594;11.650;2023-05-24T04:02:10;96783.22;;;13.46
40624;BMP280;26325;48.594;11.650;2023-05-24T04:04:40;96792.19;;;13.34
40624;BMP280;26325;48.594;11.650;2023-05-24T04:07:13;96784.47;;;13.44
40624;BMP280;26325;48.594;11.650;2023-05-24T04:09:45;96790.22;;;13.51
40624;BMP280;26325;48.594;11.650;2023-05-24T04:12:11;96787.91;;;13.54
40624;BMP280;26325;48.594;11.650;2023-05-24T04:14:37;96781.97;;;13.63
40624;BMP280;26325;48.594;11.650;2023-05-24T04:17:02;96775.00;;;13.69
40624;BMP280;26325;48.594;11.650;2023-05-24T04:19:32;96786.16;;;13.69
40624;BMP280;26325;48.594;11.650;2023-05-24T04:21:57;96780.72;;;13.66
40624;BMP280;26325;48.594;11.650;2023-05-24T04:24:23;96783.06;;;13.67
40624;BMP280;26325;48.594;11.650;2023-05-24T04:26:48;96782.28;;;13.67
40624;BMP280;26325;48.594;11.650;2023-05-24T04:29:14;96793.44;;;13.72
40624;BMP280;26325;48.594;11.650;2023-05-24T04:31:40;96788.00;;;13.78
40624;BMP280;26325;48.594;11.650;2023-05-24T04:34:09;96786.00;;;13.90
40624;BMP280;26325;48.594;11.650;2023-05-24T04:36:39;96789.16;;;13.97
40624;BMP280;26325;48.594;11.650;2023-05-24T04:39:05;96791.78;;;14.02
40624;BMP280;26325;48.594;11.650;2023-05-24T04:41:31;96784.47;;;14.04
40624;BMP280;26325;48.594;11.650;2023-05-24T04:43:57;96786.88;;;14.10
40624;BMP280;26325;48.594;11.650;2023-05-24T04:46:26;96784.78;;;14.17
40624;BMP280;26325;48.594;11.650;2023-05-24T04:48:52;96778.31;;;14.29
40624;BMP280;26325;48.594;11.650;2023-05-24T04:51:21;96775.22;;;14.27
40624;BMP280;26325;48.594;11.650;2023-05-24T04:53:46;96770.81;;;14.42
40624;BMP280;26325;48.594;11.650;2023-05-24T04:56:12;96776.00;;;14.52
40624;BMP280;26325;48.594;11.650;2023-05-24T04:58:40;96764.56;;;14.77
40624;BMP280;26325;48.594;11.650;2023-05-24T05:01:05;96766.41;;;15.01
40624;BMP280;26325;48.594;11.650;2023-05-24T05:03:31;96767.94;;;15.17
40624;BMP280;26325;48.594;11.650;2023-05-24T05:05:57;96772.59;;;15.24
40624;BMP280;26325;48.594;11.650;2023-05-24T05:08:23;96772.31;;;15.36
40624;BMP280;26325;48.594;11.650;2023-05-24T05:10:49;96775.41;;;15.43
40624;BMP280;26325;48.594;11.650;2023-05-24T05:13:14;96783.19;;;15.52
40624;BMP280;26325;48.594;11.650;2023-05-24T05:15:40;96773.00;;;15.65
40624;BMP280;26325;48.594;11.650;2023-05-24T05:18:08;96783.63;;;15.79
40624;BMP280;26325;48.594;11.650;2023-05-24T05:20:35;96785.94;;;15.85
40624;BMP280;26325;48.594;11.650;2023-05-24T05:23:01;96780.94;;;15.93
40624;BMP280;26325;48.594;11.650;2023-05-24T05:25:28;96785.34;;;16.02
40624;BMP280;26325;48.594;11.650;2023-05-24T05:27:55;96778.81;;;16.10
40624;BMP280;26325;48.594;11.650;2023-05-24T05:30:20;96779.13;;;15.94
40624;BMP280;26325;48.594;11.650;2023-05-24T05:32:46;96779.91;;;15.99
40624;BMP280;26325;48.594;11.650;2023-05-24T05:35:11;96786.19;;;15.83
40624;BMP280;26325;48.594;11.650;2023-05-24T05:37:37;96770.28;;;16.00
40624;BMP280;26325;48.594;11.650;2023-05-24T05:40:02;96767.34;;;16.11
40624;BMP280;26325;48.594;11.650;2023-05-24T05:42:28;96763.88;;;16.25
40624;BMP280;26325;48.594;11.650;2023-05-24T05:44:54;96771.91;;;16.33
40624;BMP280;26325;48.594;11.650;2023-05-24T05:47:19;96767.81;;;16.55
40624;BMP280;26325;48.594;11.650;2023-05-24T05:49:45;96758.97;;;16.56
40624;BMP280;26325;48.594;11.650;2023-05-24T05:52:10;96764.13;;;16.61
40624;BMP280;26325;48.594;11.650;2023-05-24T05:54:36;96759.69;;;16.61
40624;BMP280;26325;48.594;11.650;2023-05-24T05:57:04;96769.72;;;16.77
40624;BMP280;26325;48.594;11.650;2023-05-24T05:59:29;96759.22;;;16.87
40624;BMP280;26325;48.594;11.650;2023-05-24T06:01:57;96753.44;;;17.23
40624;BMP280;26325;48.594;11.650;2023-05-24T06:04:25;96757.00;;;17.54
40624;BMP280;26325;48.594;11.650;2023-05-24T06:06:50;96755.47;;;17.54
40624;BMP280;26325;48.594;11.650;2023-05-24T06:09:16;96752.28;;;17.79
40624;BMP280;26325;48.594;11.650;2023-05-24T06:11:41;96754.81;;;17.84
40624;BMP280;26325;48.594;11.650;2023-05-24T06:14:10;96757.06;;;17.95
40624;BMP280;26325;48.594;11.650;2023-05-24T06:16:37;96764.69;;;18.28
40624;BMP280;26325;48.594;11.650;2023-05-24T06:19:09;96757.41;;;18.43
40624;BMP280;26325;48.594;11.650;2023-05-24T06:21:34;96756.13;;;18.59
40624;BMP280;26325;48.594;11.650;2023-05-24T06:24:02;96759.00;;;18.75
40624;BMP280;26325;48.594;11.650;2023-05-24T06:26:29;96768.06;;;18.83
40624;BMP280;26325;48.594;11.650;2023-05-24T06:28:54;96764.97;;;18.63
40624;BMP280;26325;48.594;11.650;2023-05-24T06:31:22;96772.25;;;18.30
40624;BMP280;26325;48.594;11.650;2023-05-24T06:33:50;96769.22;;;18.05
40624;BMP280;26325;48.594;11.650;2023-05-24T06:36:18;96775.28;;;17.54
40624;BMP280;26325;48.594;11.650;2023-05-24T06:38:43;96773.00;;;17.71
40624;BMP280;26325;48.594;11.650;2023-05-24T06:41:09;96764.88;;;17.73
40624;BMP280;26325;48.594;11.650;2023-05-24T06:43:34;96773.16;;;17.56
40624;BMP280;26325;48.594;11.650;2023-05-24T06:46:00;96777.78;;;17.41
40624;BMP280;26325;48.594;11.650;2023-05-24T06:48:28;96775.06;;;17.51
40624;BMP280;26325;48.594;11.650;2023-05-24T06:50:53;96785.16;;;17.57
40624;BMP280;26325;48.594;11.650;2023-05-24T06:53:19;96770.59;;;17.74
40624;BMP280;26325;48.594;11.650;2023-05-24T06:55:44;96774.41;;;17.82
40624;BMP280;26325;48.594;11.650;2023-05-24T06:58:12;96774.28;;;17.96
40624;BMP280;26325;48.594;11.650;2023-05-24T07:00:41;96784.00;;;18.14
40624;BMP280;26325;48.594;11.650;2023-05-24T07:03:11;96784.81;;;18.10
40624;BMP280;26325;48.594;11.650;2023-05-24T07:05:39;96783.69;;;18.33
40624;BMP280;26325;48.594;11.650;2023-05-24T07:08:04;96773.38;;;18.60
40624;BMP280;26325;48.594;11.650;2023-05-24T07:10:31;96781.16;;;19.14
40624;BMP280;26325;48.594;11.650;2023-05-24T07:12:56;96780.69;;;19.38
40624;BMP280;26325;48.594;11.650;2023-05-24T07:15:22;96776.28;;;19.65
40624;BMP280;26325;48.594;11.650;2023-05-24T07:17:47;96772.28;;;20.20
40624;BMP280;26325;48.594;11.650;2023-05-24T07:20:13;96780.75;;;20.52
40624;BMP280;26325;48.594;11.650;2023-05-24T07:22:40;96780.66;;;20.78
40624;BMP280;26325;48.594;11.650;2023-05-24T07:25:06;96790.84;;;21.14
40624;BMP280;26325;48.594;11.650;2023-05-24T07:27:31;96791.97;;;21.21
40624;BMP280;26325;48.594;11.650;2023-05-24T07:29:57;96786.53;;;21.18
40624;BMP280;26325;48.594;11.650;2023-05-24T07:32:25;96792.72;;;21.22
40624;BMP280;26325;48.594;11.650;2023-05-24T07:34:51;96790.75;;;21.57
40624;BMP280;26325;48.594;11.650;2023-05-24T07:37:16;96788.44;;;21.56
40624;BMP280;26325;48.594;11.650;2023-05-24T07:39:44;96797.13;;;21.35
40624;BMP280;26325;48.594;11.650;2023-05-24T07:42:10;96795.16;;;21.40
40624;BMP280;26325;48.594;11.650;2023-05-24T07:44:36;96799.22;;;21.03
40624;BMP280;26325;48.594;11.650;2023-05-24T07:47:04;96801.91;;;21.33
40624;BMP280;26325;48.594;11.650;2023-05-24T07:49:30;96799.28;;;21.11
40624;BMP280;26325;48.594;11.650;2023-05-24T07:51:55;96806.22;;;21.07
40624;BMP280;26325;48.594;11.650;2023-05-24T07:54:25;96802.13;;;21.01
40624;BMP280;26325;48.594;11.650;2023-05-24T07:56:51;96806.34;;;20.81
40624;BMP280;26325;48.594;11.650;2023-05-24T07:59:17;96820.28;;;20.90
40624;BMP280;26325;48.594;11.650;2023-05-24T08:01:43;96805.59;;;21.10
40624;BMP280;26325;48.594;11.650;2023-05-24T08:04:08;96805.88;;;21.09
40624;BMP280;26325;48.594;11.650;2023-05-24T08:06:35;96810.81;;;21.23
40624;BMP280;26325;48.594;11.650;2023-05-24T08:09:01;96814.88;;;21.29
40624;BMP280;26325;48.594;11.650;2023-05-24T08:11:28;96810.50;;;21.25
40624;BMP280;26325;48.594;11.650;2023-05-24T08:13:54;96816.47;;;21.17
40624;BMP280;26325;48.594;11.650;2023-05-24T08:16:19;96820.28;;;21.11
40624;BMP280;26325;48.594;11.650;2023-05-24T08:18:45;96826.41;;;20.64
40624;BMP280;26325;48.594;11.650;2023-05-24T08:21:11;96838.47;;;20.86
40624;BMP280;26325;48.594;11.650;2023-05-24T08:23:36;96834.72;;;20.79
40624;BMP280;26325;48.594;11.650;2023-05-24T08:26:05;96844.13;;;20.19
40624;BMP280;26325;48.594;11.650;2023-05-24T08:28:32;96837.84;;;19.49
40624;BMP280;26325;48.594;11.650;2023-05-24T08:30:58;96833.66;;;19.93
40624;BMP280;26325;48.594;11.650;2023-05-24T08:33:24;96835.59;;;19.87
40624;BMP280;26325;48.594;11.650;2023-05-24T08:35:50;96839.84;;;19.97
40624;BMP280;26325;48.594;11.650;2023-05-24T08:38:19;96832.69;;;20.02
40624;BMP280;26325;48.594;11.650;2023-05-24T08:40:46;96842.97;;;20.12
40624;BMP280;26325;48.594;11.650;2023-05-24T08:48:08;96832.28;;;19.69
40624;BMP280;26325;48.594;11.650;2023-05-24T08:50:34;96841.88;;;19.73
40624;BMP280;26325;48.594;11.650;2023-05-24T08:53:00;96855.41;;;19.93
40624;BMP280;26325;48.594;11.650;2023-05-24T08:55:30;96859.28;;;20.09
40624;BMP280;26325;48.594;11.650;2023-05-24T08:57:58;96857.47;;;20.70
40624;BMP280;26325;48.594;11.650;2023-05-24T09:00:25;96851.13;;;20.84
40624;BMP280;26325;48.594;11.650;2023-05-24T09:02:51;96859.19;;;20.88
40624;BMP280;26325;48.594;11.650;2023-05-24T09:05:17;96846.13;;;20.61
40624;BMP280;26325;48.594;11.650;2023-05-24T09:07:47;96845.06;;;20.62
40624;BMP280;26325;48.594;11.650;2023-05-24T09:10:15;96855.94;;;20.69
40624;BMP280;26325;48.594;11.650;2023-05-24T09:12:46;96851.78;;;20.55
40624;BMP280;26325;48.594;11.650;2023-05-24T09:15:13;96847.41;;;20.85
40624;BMP280;26325;48.594;11.650;2023-05-24T09:17:38;96839.59;;;20.72
40624;BMP280;26325;48.594;11.650;2023-05-24T09:20:07;96849.41;;;21.01
40624;BMP280;26325;48.594;11.650;2023-05-24T09:22:36;96856.41;;;20.71
40624;BMP280;26325;48.594;11.650;2023-05-24T09:25:06;96842.75;;;20.48
40624;BMP280;26325;48.594;11.650;2023-05-24T09:27:34;96845.28;;;20.26
40624;BMP280;26325;48.594;11.650;2023-05-24T09:30:01;96839.94;;;20.31
40624;BMP280;26325;48.594;11.650;2023-05-24T09:32:29;96852.72;;;20.72
40624;BMP280;26325;48.594;11.650;2023-05-24T09:34:57;96852.75;;;21.58
40624;BMP280;26325;48.594;11.650;2023-05-24T09:37:26;96837.25;;;22.16
40624;BMP280;26325;48.594;11.650;2023-05-24T09:39:53;96852.56;;;22.22
40624;BMP280;26325;48.594;11.650;2023-05-24T09:42:21;96849.97;;;22.31
40624;BMP280;26325;48.594;11.650;2023-05-24T09:45:06;96849.31;;;22.17
40624;BMP280;26325;48.594;11.650;2023-05-24T09:47:41;96837.00;;;21.96
40624;BMP280;26325;48.594;11.650;2023-05-24T09:50:16;96831.63;;;21.71
40624;BMP280;26325;48.594;11.650;2023-05-24T09:52:42;96828.03;;;20.95
40624;BMP280;26325;48.594;11.650;2023-05-24T09:55:18;96842.09;;;20.77
40624;BMP280;26325;48.594;11.650;2023-05-24T09:58:04;96848.19;;;20.64
40624;BMP280;26325;48.594;11.650;2023-05-24T10:00:37;96853.03;;;20.58
40624;BMP280;26325;48.594;11.650;2023-05-24T10:03:11;96858.03;;;20.46
40624;BMP280;26325;48.594;11.650;2023-05-24T10:05:41;96847.41;;;20.64
40624;BMP280;26325;48.594;11.650;2023-05-24T10:08:09;96841.59;;;20.41
40624;BMP280;26325;48.594;11.650;2023-05-24T10:10:35;96851.16;;;20.71
40624;BMP280;26325;48.594;11.650;2023-05-24T10:13:02;96861.06;;;20.74
40624;BMP280;26325;48.594;11.650;2023-05-24T10:17:55;96844.50;;;20.52
40624;BMP280;26325;48.594;11.650;2023-05-24T10:20:22;96833.44;;;20.42
40624;BMP280;26325;48.594;11.650;2023-05-24T10:22:54;96831.41;;;20.00
40624;BMP280;26325;48.594;11.650;2023-05-24T10:25:23;96846.75;;;20.06
40624;BMP280;26325;48.594;11.650;2023-05-24T10:27:56;96852.28;;;20.44
40624;BMP280;26325;48.594;11.650;2023-05-24T10:30:31;96847.19;;;20.61
40624;BMP280;26325;48.594;11.650;2023-05-24T10:33:00;96851.69;;;20.34
40624;BMP280;26325;48.594;11.650;2023-05-24T10:35:27;96862.00;;;20.43
40624;BMP280;26325;48.594;11.650;2023-05-24T10:37:53;96856.41;;;20.71
40624;BMP280;26325;48.594;11.650;2023-05-24T10:40:22;96852.19;;;20.83
40624;BMP280;26325;48.594;11.650;2023-05-24T10:42:51;96866.47;;;21.12
40624;BMP280;26325;48.594;11.650;2023-05-24T10:45:36;96851.94;;;21.28
40624;BMP280;26325;48.594;11.650;2023-05-24T10:58:15;96843.56;;;21.47
40624;BMP280;26325;48.594;11.650;2023-05-24T11:00:45;96845.47;;;21.12
40624;BMP280;26325;48.594;11.650;2023-05-24T11:03:15;96847.53;;;21.96
40624;BMP280;26325;48.594;11.650;2023-05-24T11:11:13;96846.69;;;21.28
40624;BMP280;26325;48.594;11.650;2023-05-24T11:13:41;96841.13;;;21.29
40624;BMP280;26325;48.594;11.650;2023-05-24T11:16:37;96845.66;;;21.58
40624;BMP280;26325;48.594;11.650;2023-05-24T11:19:37;96842.25;;;21.88
40624;BMP280;26325;48.594;11.650;2023-05-24T11:22:07;96840.78;;;22.12
40624;BMP280;26325;48.594;11.650;2023-05-24T11:24:33;96840.31;;;22.10
40624;BMP280;26325;48.594;11.650;2023-05-24T11:27:00;96844.00;;;22.00
40624;BMP280;26325;48.594;11.650;2023-05-24T11:29:30;96842.09;;;22.39
40624;BMP280;26325;48.594;11.650;2023-05-24T11:31:58;96840.78;;;22.66
40624;BMP280;26325;48.594;11.650;2023-05-24T11:34:31;96846.81;;;23.08
40624;BMP280;26325;48.594;11.650;2023-05-24T11:36:58;96839.69;;;23.33
40624;BMP280;26325;48.594;11.650;2023-05-24T11:39:29;96844.50;;;24.29
40624;BMP280;26325;48.594;11.650;2023-05-24T11:41:55;96830.84;;;25.16
40624;BMP280;26325;48.594;11.650;2023-05-24T11:44:24;96821.59;;;25.10
40624;BMP280;26325;48.594;11.650;2023-05-24T11:47:00;96832.44;;;23.75
40624;BMP280;26325;48.594;11.650;2023-05-24T11:49:26;96839.06;;;24.26
40624;BMP280;26325;48.594;11.650;2023-05-24T11:51:56;96826.41;;;25.08
40624;BMP280;26325;48.594;11.650;2023-05-24T11:54:28;96821.38;;;25.15
40624;BMP280;26325;48.594;11.650;2023-05-24T11:56:57;96810.28;;;26.08
40624;BMP280;26325;48.594;11.650;2023-05-24T11:59:27;96825.97;;;26.86
40624;BMP280;26325;48.594;11.650;2023-05-24T12:02:04;96819.13;;;26.97
40624;BMP280;26325;48.594;11.650;2023-05-24T12:04:31;96821.31;;;26.10
40624;BMP280;26325;48.594;11.650;2023-05-24T12:06:57;96826.94;;;26.55
40624;BMP280;26325;48.594;11.650;2023-05-24T12:09:26;96831.66;;;27.12
40624;BMP280;26325;48.594;11.650;2023-05-24T12:11:52;96820.22;;;27.34
40624;BMP280;26325;48.594;11.650;2023-05-24T12:14:24;96824.41;;;27.09
40624;BMP280;26325;48.594;11.650;2023-05-24T12:16:55;96823.84;;;26.53
40624;BMP280;26325;48.594;11.650;2023-05-24T12:19:31;96818.56;;;26.30
40624;BMP280;26325;48.594;11.650;2023-05-24T12:22:04;96828.47;;;26.33
40624;BMP280;26325;48.594;11.650;2023-05-24T12:24:34;96819.38;;;26.92
40624;BMP280;26325;48.594;11.650;2023-05-24T12:27:01;96815.34;;;27.78
40624;BMP280;26325;48.594;11.650;2023-05-24T12:29:42;96810.22;;;28.00
40624;BMP280;26325;48.594;11.650;2023-05-24T12:32:11;96807.09;;;28.13
40624;BMP280;26325;48.594;11.650;2023-05-24T12:34:40;96806.19;;;27.76
40624;BMP280;26325;48.594;11.650;2023-05-24T12:37:08;96815.41;;;27.97
40624;BMP280;26325;48.594;11.650;2023-05-24T12:39:35;96809.19;;;26.94
40624;BMP280;26325;48.594;11.650;2023-05-24T12:42:03;96810.63;;;27.30
40624;BMP280;26325;48.594;11.650;2023-05-24T12:44:36;96807.72;;;27.35
40624;BMP280;26325;48.594;11.650;2023-05-24T12:47:06;96800.34;;;27.71
40624;BMP280;26325;48.594;11.650;2023-05-24T12:49:34;96807.72;;;27.77
40624;BMP280;26325;48.594;11.650;2023-05-24T12:52:00;96815.09;;;27.68
40624;BMP280;26325;48.594;11.650;2023-05-24T12:54:27;96811.72;;;27.71
40624;BMP280;26325;48.594;11.650;2023-05-24T12:56:56;96808.66;;;28.45
40624;BMP280;26325;48.594;11.650;2023-05-24T12:59:21;96804.88;;;29.53
40624;BMP280;26325;48.594;11.650;2023-05-24T13:01:47;96792.22;;;30.35
40624;BMP280;26325;48.594;11.650;2023-05-24T13:04:21;96791.19;;;29.95
40624;BMP280;26325;48.594;11.650;2023-05-24T13:06:47;96809.38;;;29.90
40624;BMP280;26325;48.594;11.650;2023-05-24T13:09:15;96806.84;;;29.56
40624;BMP280;26325;48.594;11.650;2023-05-24T13:11:43;96804.41;;;28.92
40624;BMP280;26325;48.594;11.650;2023-05-24T13:14:09;96798.72;;;29.90
40624;BMP280;26325;48.594;11.650;2023-05-24T13:16:37;96795.63;;;30.57
40624;BMP280;26325;48.594;11.650;2023-05-24T13:19:03;96790.22;;;29.63
40624;BMP280;26325;48.594;11.650;2023-05-24T13:21:28;96798.31;;;30.10
40624;BMP280;26325;48.594;11.650;2023-05-24T13:23:54;96794.03;;;30.27
40624;BMP280;26325;48.594;11.650;2023-05-24T13:26:19;96803.97;;;28.57
40624;BMP280;26325;48.594;11.650;2023-05-24T13:28:46;96799.44;;;29.09
40624;BMP280;26325;48.594;11.650;2023-05-24T13:31:11;96793.91;;;30.21
40624;BMP280;26325;48.594;11.650;2023-05-24T13:33:37;96803.59;;;30.54
40624;BMP280;26325;48.594;11.650;2023-05-24T13:36:03;96796.69;;;30.78
40624;BMP280;26325;48.594;11.650;2023-05-24T13:38:28;96795.31;;;30.62
40624;BMP280;26325;48.594;11.650;2023-05-24T13:40:54;96789.84;;;30.80
40624;BMP280;26325;48.594;11.650;2023-05-24T13:43:20;96790.81;;;29.93
40624;BMP280;26325;48.594;11.650;2023-05-24T13:45:47;96790.91;;;29.01
40624;BMP280;26325;48.594;11.650;2023-05-24T13:48:12;96787.00;;;29.32
40624;BMP280;26325;48.594;11.650;2023-05-24T13:50:40;96803.38;;;29.15
40624;BMP280;26325;48.594;11.650;2023-05-24T13:53:06;96800.06;;;28.51
40624;BMP280;26325;48.594;11.650;2023-05-24T13:55:34;96792.03;;;28.32
40624;BMP280;26325;48.594;11.650;2023-05-24T13:58:02;96788.91;;;27.82
40624;BMP280;26325;48.594;11.650;2023-05-24T14:00:29;96796.41;;;27.80
40624;BMP280;26325;48.594;11.650;2023-05-24T14:02:55;96788.09;;;27.51
40624;BMP280;26325;48.594;11.650;2023-05-24T14:07:47;96782.06;;;29.52
40624;BMP280;26325;48.594;11.650;2023-05-24T14:10:13;96782.97;;;30.51
40624;BMP280;26325;48.594;11.650;2023-05-24T14:12:39;96781.81;;;30.77
40624;BMP280;26325;48.594;11.650;2023-05-24T14:15:05;96783.34;;;31.03
40624;BMP280;26325;48.594;11.650;2023-05-24T14:17:31;96793.19;;;30.74
40624;BMP280;26325;48.594;11.650;2023-05-24T14:20:00;96796.53;;;29.95
40624;BMP280;26325;48.594;11.650;2023-05-24T14:22:26;96786.91;;;29.87
40624;BMP280;26325;48.594;11.650;2023-05-24T14:24:53;96786.53;;;29.67
40624;BMP280;26325;48.594;11.650;2023-05-24T14:27:19;96788.81;;;29.46
40624;BMP280;26325;48.594;11.650;2023-05-24T14:29:44;96789.66;;;29.50
40624;BMP280;26325;48.594;11.650;2023-05-24T14:32:11;96791.41;;;29.25
40624;BMP280;26325;48.594;11.650;2023-05-24T14:34:37;96794.03;;;28.35